createdAt,value
2022-08-02T00:00:41.101Z,99638.06
2022-08-02T00:05:43.936Z,99626.72
2022-08-02T00:10:56.075Z,99637.13
2022-08-02T00:15:58.721Z,99632.75
2022-08-02T00:21:01.405Z,99633.69
2022-08-02T00:26:04.171Z,99611.41
2022-08-02T00:31:06.889Z,99624.22
2022-08-02T00:36:09.639Z,99622.69
2022-08-02T00:41:18.072Z,99623.38
2022-08-02T00:46:21.151Z,99626.16
2022-08-02T00:51:24.002Z,99608.97
2022-08-02T00:56:26.700Z,99629.06
2022-08-02T01:01:55.852Z,99630.38
2022-08-02T01:07:01.359Z,99635.88
2022-08-02T01:12:04.089Z,99610.22
2022-08-02T01:17:10.735Z,99629.06
2022-08-02T01:23:02.019Z,99624.03
2022-08-02T01:28:30.021Z,99624.19
2022-08-02T01:33:51.888Z,99622.53
2022-08-02T01:38:56.451Z,99623.22
2022-08-02T01:44:01.423Z,99626.44
2022-08-02T01:49:09.449Z,99622.63
2022-08-02T01:54:17.269Z,99614.63
2022-08-02T01:59:23.136Z,99604.34
2022-08-02T02:04:29.797Z,99612.44
2022-08-02T02:09:50.362Z,99610.09
2022-08-02T02:14:56.212Z,99597.69
2022-08-02T02:20:01.943Z,99590.25
2022-08-02T02:25:07.233Z,99600.50
2022-08-02T02:30:12.542Z,99598.28
2022-08-02T02:35:18.251Z,99580.22
2022-08-02T02:40:22.550Z,99575.31
2022-08-02T02:45:26.108Z,99582.06
2022-08-02T02:50:30.571Z,99564.66
2022-08-02T02:55:33.459Z,99570.50
2022-08-02T03:00:54.855Z,99558.56
2022-08-02T03:05:58.237Z,99569.09
2022-08-02T03:11:01.339Z,99578.19
2022-08-02T03:16:07.414Z,99572.47
2022-08-02T03:21:12.517Z,99595.78
2022-08-02T03:26:16.553Z,99581.78
2022-08-02T03:31:19.212Z,99591.94
2022-08-02T03:36:24.309Z,99595.28
2022-08-02T03:41:28.142Z,99591.00
2022-08-02T03:46:32.249Z,99597.94
2022-08-02T03:51:38.005Z,99605.31
2022-08-02T03:56:40.827Z,99593.06
2022-08-02T04:01:43.609Z,99598.59
2022-08-02T04:06:46.918Z,99604.34
2022-08-02T04:11:49.615Z,99605.03
2022-08-02T04:17:04.714Z,99618.06
2022-08-02T04:22:14.780Z,99609.72
2022-08-02T04:27:50.682Z,99610.09
2022-08-02T04:32:44.387Z,99612.91
2022-08-02T04:38:09.345Z,99610.16
2022-08-02T04:43:11.293Z,99606.00
2022-08-02T04:48:13.970Z,99604.06
2022-08-02T04:53:17.068Z,99599.88
2022-08-02T05:03:42.617Z,99613.56
2022-08-02T05:08:53.070Z,99599.28
2022-08-02T05:13:58.557Z,99602.13
2022-08-02T05:19:03.136Z,99592.22
2022-08-02T05:24:06.765Z,99594.94
2022-08-02T05:29:09.417Z,99597.84
2022-08-02T05:34:12.362Z,99596.72
2022-08-02T05:39:18.925Z,99595.41
2022-08-02T05:44:22.048Z,99590.50
2022-08-02T05:49:24.947Z,99595.53
2022-08-02T05:54:39.975Z,99584.63
2022-08-02T05:59:57.423Z,99585.50
2022-08-02T06:05:07.200Z,99578.88
2022-08-02T06:10:14.881Z,99580.09
2022-08-02T06:15:19.030Z,99559.34
2022-08-02T06:20:22.220Z,99579.69
2022-08-02T06:25:51.212Z,99571.16
2022-08-02T06:30:49.364Z,99574.75
2022-08-02T06:36:21.839Z,99566.94
2022-08-02T06:41:26.450Z,99563.06
2022-08-02T06:47:09.530Z,99559.72
2022-08-02T06:51:52.792Z,99557.72
2022-08-02T06:56:55.457Z,99570.97
2022-08-02T07:01:59.884Z,99542.41
2022-08-02T07:07:02.662Z,99556.38
2022-08-02T07:12:06.676Z,99549.25
2022-08-02T07:17:09.446Z,99545.31
2022-08-02T07:22:13.146Z,99549.97
2022-08-02T07:27:16.555Z,99536.00
2022-08-02T07:32:21.132Z,99544.50
2022-08-02T07:37:51.182Z,99543.59
2022-08-02T07:42:54.574Z,99537.84
2022-08-02T07:47:59.467Z,99553.72
2022-08-02T07:53:02.225Z,99533.94
2022-08-02T07:58:05.434Z,99532.03
2022-08-02T08:03:08.154Z,99543.47
2022-08-02T08:08:16.710Z,99536.56
2022-08-02T08:13:20.792Z,99549.88
2022-08-02T08:18:23.581Z,99539.59
2022-08-02T08:23:27.664Z,99535.13
2022-08-02T08:28:30.314Z,99552.78
2022-08-02T08:33:33.513Z,99535.59
2022-08-02T08:38:36.324Z,99537.56
2022-08-02T08:43:39.019Z,99531.91
2022-08-02T08:48:46.277Z,99524.16
2022-08-02T08:53:54.291Z,99514.41
2022-08-02T08:58:57.138Z,99516.56
2022-08-02T09:04:00.449Z,99517.34
2022-08-02T09:09:03.209Z,99511.31
2022-08-02T09:14:06.974Z,99514.75
2022-08-02T09:19:20.338Z,99510.59
2022-08-02T09:24:23.701Z,99514.38
2022-08-02T09:29:26.672Z,99490.25
2022-08-02T09:34:53.571Z,99503.94
2022-08-02T09:40:00.725Z,99503.78
2022-08-02T09:45:03.909Z,99503.72
2022-08-02T09:50:08.369Z,99499.06
2022-08-02T09:55:14.501Z,99509.94
2022-08-02T10:00:23.497Z,99504.59
2022-08-02T10:05:57.255Z,99503.44
2022-08-02T10:11:05.069Z,99507.63
2022-08-02T10:16:07.801Z,99500.97
2022-08-02T10:21:26.837Z,99503.53
2022-08-02T10:26:30.762Z,99497.06
2022-08-02T10:31:47.538Z,99495.22
2022-08-02T10:36:51.484Z,99493.56
2022-08-02T10:41:54.138Z,99494.25
2022-08-02T10:47:15.443Z,99486.13
2022-08-02T10:52:23.234Z,99462.38
2022-08-02T10:57:28.296Z,99465.91
2022-08-02T11:02:44.420Z,99474.31
2022-08-02T11:07:50.568Z,99475.78
2022-08-02T11:13:15.488Z,99493.97
2022-08-02T11:18:20.575Z,99491.47
2022-08-02T11:23:44.950Z,99481.78
2022-08-02T11:28:51.901Z,99477.91
2022-08-02T11:33:55.206Z,99480.00
2022-08-02T11:39:15.874Z,99481.16
2022-08-02T11:44:19.277Z,99484.41
2022-08-02T11:49:26.529Z,99479.44
2022-08-02T11:54:40.907Z,99467.25
2022-08-02T11:59:46.207Z,99470.41
2022-08-02T12:04:59.342Z,99470.84
2022-08-02T12:10:07.207Z,99488.91
2022-08-02T12:15:10.216Z,99487.94
2022-08-02T12:20:13.682Z,99492.63
2022-08-02T12:25:33.486Z,99486.31
2022-08-02T12:30:54.948Z,99480.91
2022-08-02T12:35:57.711Z,99465.66
2022-08-02T12:41:31.542Z,99462.88
2022-08-02T12:46:41.811Z,99478.66
2022-08-02T12:51:50.896Z,99468.94
2022-08-02T12:57:12.425Z,99471.47
2022-08-02T13:02:16.939Z,99470.38
2022-08-02T13:07:20.167Z,99471.63
2022-08-02T13:12:22.873Z,99456.19
2022-08-02T13:17:25.630Z,99472.59
2022-08-02T13:22:28.765Z,99463.91
2022-08-02T13:27:32.452Z,99464.19
2022-08-02T13:32:35.919Z,99446.19
2022-08-02T13:37:40.320Z,99446.81
2022-08-02T13:42:43.506Z,99444.31
2022-08-02T13:48:03.528Z,99444.63
2022-08-02T13:53:07.645Z,99443.97
2022-08-02T13:58:10.655Z,99437.13
2022-08-02T14:03:13.477Z,99455.03
2022-08-02T14:08:18.420Z,99430.88
2022-08-02T14:13:21.244Z,99440.69
2022-08-02T14:18:23.877Z,99446.88
2022-08-02T14:23:50.655Z,99432.41
2022-08-02T14:28:51.251Z,99450.38
2022-08-02T14:33:54.052Z,99445.22
2022-08-02T14:38:57.153Z,99450.97
2022-08-02T14:44:06.205Z,99446.88
2022-08-02T14:49:10.703Z,99440.84
2022-08-02T14:54:14.532Z,99441.28
2022-08-02T14:59:17.419Z,99440.03
2022-08-02T15:04:20.128Z,99439.00
2022-08-02T15:09:22.954Z,99440.34
2022-08-02T15:14:26.559Z,99436.63
2022-08-02T15:19:57.776Z,99433.00
2022-08-02T15:24:54.196Z,99435.25
2022-08-02T15:30:00.610Z,99447.41
2022-08-02T15:35:05.057Z,99446.03
2022-08-02T15:40:08.437Z,99444.31
2022-08-02T15:45:15.355Z,99444.38
2022-08-02T15:50:19.067Z,99452.50
2022-08-02T15:55:21.859Z,99448.16
2022-08-02T16:00:24.583Z,99449.75
2022-08-02T16:05:27.390Z,99449.38
2022-08-02T16:10:30.185Z,99440.00
2022-08-02T16:15:32.837Z,99442.16
2022-08-02T16:20:35.643Z,99457.94
2022-08-02T16:25:41.989Z,99454.88
2022-08-02T16:30:59.277Z,99463.41
2022-08-02T16:36:08.154Z,99434.75
2022-08-02T16:41:10.975Z,99459.81
2022-08-02T16:46:13.930Z,99461.63
2022-08-02T16:51:16.630Z,99467.75
2022-08-02T16:56:19.407Z,99469.28
2022-08-02T17:01:27.026Z,99476.66
2022-08-02T17:06:30.273Z,99487.41
2022-08-02T17:11:32.918Z,99487.59
2022-08-02T17:16:35.595Z,99478.00
2022-08-02T17:21:38.976Z,99469.84
2022-08-02T17:26:41.721Z,99507.03
2022-08-02T17:32:05.772Z,99510.00
2022-08-02T17:37:11.475Z,99514.13
2022-08-02T17:42:15.391Z,99519.09
2022-08-02T17:47:30.816Z,99512.72
2022-08-02T17:52:50.472Z,99518.66
2022-08-02T17:57:58.632Z,99513.13
2022-08-02T18:03:05.420Z,99504.88
2022-08-02T18:08:09.207Z,99514.91
2022-08-02T18:13:11.844Z,99496.72
2022-08-02T18:18:17.025Z,99521.22
2022-08-02T18:23:23.350Z,99517.56
2022-08-02T18:28:26.523Z,99519.44
2022-08-02T18:33:56.985Z,99520.00
2022-08-02T18:38:52.520Z,99506.19
2022-08-02T18:43:56.093Z,99511.84
2022-08-02T18:49:13.441Z,99516.03
2022-08-02T18:54:26.549Z,99519.13
2022-08-02T18:59:36.638Z,99524.81
2022-08-02T19:04:43.707Z,99522.03
2022-08-02T19:09:49.796Z,99524.28
2022-08-02T19:14:52.565Z,99516.34
2022-08-02T19:19:55.988Z,99514.72
2022-08-02T19:25:01.282Z,99516.94
2022-08-02T19:30:07.543Z,99539.53
2022-08-02T19:35:19.726Z,99537.19
2022-08-02T19:40:33.360Z,99548.53
2022-08-02T19:45:49.639Z,99541.28
2022-08-02T19:50:56.583Z,99535.59
2022-08-02T19:56:04.087Z,99542.84
2022-08-02T20:01:07.674Z,99539.09
2022-08-02T20:06:18.140Z,99544.56
2022-08-02T20:11:23.345Z,99520.44
2022-08-02T20:21:55.475Z,99501.56
2022-08-02T20:27:03.062Z,99548.34
2022-08-02T20:38:00.089Z,99554.31
2022-08-02T20:42:54.344Z,99533.75
2022-08-02T20:48:00.070Z,99537.75
2022-08-02T20:53:04.680Z,99544.66
2022-08-02T20:58:11.814Z,99533.75
2022-08-02T21:03:16.308Z,99546.25
2022-08-02T21:08:22.483Z,99543.19
2022-08-02T21:13:26.575Z,99535.63
2022-08-02T21:18:35.900Z,99511.91
2022-08-02T21:23:48.615Z,99532.06
2022-08-02T21:28:51.824Z,99547.94
2022-08-02T21:33:59.383Z,99555.69
2022-08-02T21:39:08.943Z,99529.03
2022-08-02T21:44:13.838Z,99531.03
2022-08-02T21:49:20.168Z,99557.53
2022-08-02T21:54:23.299Z,99557.88
2022-08-02T21:59:26.870Z,99560.28
2022-08-02T22:04:29.721Z,99545.13
2022-08-02T22:09:44.244Z,99551.22
2022-08-02T22:14:54.994Z,99563.78
2022-08-02T22:19:58.173Z,99559.00
2022-08-02T22:25:00.807Z,99570.44
2022-08-02T22:30:07.465Z,99568.97
2022-08-02T22:35:12.581Z,99573.44
2022-08-02T22:40:15.316Z,99573.63
2022-08-02T22:45:21.163Z,99572.25
2022-08-02T22:50:26.034Z,99561.50
2022-08-02T22:55:32.339Z,99582.63
2022-08-02T22:58:55.199Z,99543.97
2022-08-02T22:59:06.691Z,99549.72
2022-08-02T23:00:35.954Z,99576.06
2022-08-02T23:05:39.153Z,99578.84
2022-08-02T23:10:42.950Z,99567.09
2022-08-02T23:16:04.063Z,99577.16
2022-08-02T23:21:06.778Z,99568.94
2022-08-02T23:26:09.934Z,99573.25
2022-08-02T23:31:28.984Z,99586.28
2022-08-02T23:36:32.046Z,99581.59
2022-08-02T23:41:34.664Z,99593.34
2022-08-02T23:46:56.917Z,99595.41
2022-08-02T23:52:01.901Z,99597.28
2022-08-02T23:57:20.654Z,99602.59
